Yakutat, AK

2:04 AM AKST on November 23, 2014 (GMT -0900)
Yakutat | Change Station
CLOSE
Current Station
Airport
Location: Yakutat,
Elevation: 33 ft
Nearby Weather Stations

Elev 33 ft 59.50 °N, 139.66 °W | Updated 3 minutes ago

Rain
Rain Mist
37 °F
Feels Like 37 °F
N
0
Wind Variable Wind from North

Today
High -- | Low -- °F
--% Chance of Precip.
Yesterday
High -- | Low -- °F
Precip. -- in
8:34 AM 3:33 PM
New Moon, 1% visible
Pressure 29.49 in
Visibility 5.0 miles
Clouds Few 800 ft
Mostly Cloudy 2300 ft
Overcast 3000 ft
Dew Point 35 °F
Humidity 93%
Rainfall 0.04 in
Snow Depth Not available.
UV 0 out of 12
Pollen Not available.
Air Quality Not available.
Flu Activity Not available.
SPECI PAYA 231101Z 00000KT 5SM RA BR FEW008 BKN023 OVC030 03/02 A2949 RMK AO2 P0003 T00280017

More Conditions Fewer Conditions

Pressure 29.49 in
Visibility 5.0 miles
Clouds Few 800 ft
Mostly Cloudy 2300 ft
Overcast 3000 ft
Dew Point 35 °F
Humidity 93%
Rainfall 0.04 in
Snow Depth Not available.
UV 0 out of 12
Pollen Not available.
Air Quality Not available.
Flu Activity Not available.
SPECI PAYA 231101Z 00000KT 5SM RA BR FEW008 BKN023 OVC030 03/02 A2949 RMK AO2 P0003 T00280017

More Conditions Fewer Conditions

10-Day Weather Forecast

Almanac

Astronomy

Nov. 23, 2014 Rise Set
Actual Time
Civil Twilight
Nautical Twilight
Astronomical Twilight
Moon
Length of Visible Light
Length of Day
Tomorrow will be .
, % of the Moon is Illuminated

Today's Extremes

State Highs State Lows

Community

WunderPhotos

Upload Photos

1,773,033 photos uploaded!

WunderBlogs® & News

Nearby

Air Quality

  Air Quality AQ Index Pollutant
Not available.

Snow Depth

Station Depth Elevation

Earthquake Activity

City Distance Mag. Time & Date
Minimum magnitude displayed is 2.5.

Coastal Water Temperatures

Place Temperature

Nearby Weather Stations